createdAt,value
2023-03-08T00:01:22.741Z,0.77
2023-03-08T00:03:55.120Z,0.75
2023-03-08T00:06:23.264Z,0.75
2023-03-08T00:08:58.567Z,0.75
2023-03-08T00:11:29.337Z,0.75
2023-03-08T00:13:57.897Z,0.75
2023-03-08T00:16:25.858Z,0.78
2023-03-08T00:18:53.897Z,0.80
2023-03-08T00:21:22.125Z,0.82
2023-03-08T00:23:52.966Z,0.84
2023-03-08T00:26:21.053Z,0.86
2023-03-08T00:28:49.383Z,0.90
2023-03-08T00:31:17.639Z,0.93
2023-03-08T00:33:46.732Z,0.97
2023-03-08T00:36:17.751Z,1.02
2023-03-08T00:38:47.381Z,1.05
2023-03-08T00:41:15.490Z,1.10
2023-03-08T00:43:43.738Z,1.14
2023-03-08T00:46:12.270Z,1.18
2023-03-08T00:48:40.809Z,1.22
2023-03-08T00:51:10.266Z,1.26
2023-03-08T00:53:38.346Z,1.28
2023-03-08T00:56:06.610Z,1.31
2023-03-08T00:58:34.592Z,1.33
2023-03-08T01:01:04.567Z,1.34
2023-03-08T01:03:33.595Z,1.36
2023-03-08T01:06:07.350Z,1.38
2023-03-08T01:08:35.584Z,1.39
2023-03-08T01:11:03.558Z,1.41
2023-03-08T01:13:33.530Z,1.44
2023-03-08T01:16:02.228Z,1.47
2023-03-08T01:18:30.335Z,1.52
2023-03-08T01:20:59.389Z,1.55
2023-03-08T01:23:27.516Z,1.59
2023-03-08T01:26:03.210Z,1.62
2023-03-08T01:28:31.854Z,1.65
2023-03-08T01:31:05.737Z,1.67
2023-03-08T01:33:35.727Z,1.70
2023-03-08T01:36:08.231Z,1.70
2023-03-08T01:38:36.816Z,1.71
2023-03-08T01:41:05.790Z,1.72
2023-03-08T01:43:36.426Z,1.74
2023-03-08T01:46:06.462Z,1.75
2023-03-08T01:48:43.938Z,1.76
2023-03-08T01:51:21.271Z,1.78
2023-03-08T01:53:49.213Z,1.80
2023-03-08T01:56:17.889Z,1.82
2023-03-08T01:58:46.782Z,1.84
2023-03-08T02:01:15.345Z,1.87
2023-03-08T02:03:44.237Z,1.89
2023-03-08T02:06:12.930Z,1.91
2023-03-08T02:08:42.461Z,1.92
2023-03-08T02:11:10.477Z,1.94
2023-03-08T02:13:40.028Z,1.96
2023-03-08T02:16:10.790Z,1.97
2023-03-08T02:18:56.565Z,1.99
2023-03-08T02:21:26.391Z,1.99
2023-03-08T02:23:54.712Z,1.99
2023-03-08T02:26:26.839Z,2.00
2023-03-08T02:28:54.812Z,2.00
2023-03-08T02:31:22.702Z,2.01
2023-03-08T02:33:50.973Z,2.02
2023-03-08T02:36:19.195Z,2.03
2023-03-08T02:38:48.043Z,2.04
2023-03-08T02:41:16.087Z,2.04
2023-03-08T02:43:44.808Z,2.05
2023-03-08T02:46:13.589Z,2.06
2023-03-08T02:48:41.568Z,2.07
2023-03-08T02:51:09.627Z,2.08
2023-03-08T02:53:38.516Z,2.08
2023-03-08T02:56:07.025Z,2.06
2023-03-08T02:58:37.115Z,2.05
2023-03-08T03:01:11.161Z,2.03
2023-03-08T03:03:40.576Z,2.02
2023-03-08T03:06:19.419Z,2.01
2023-03-08T03:08:49.554Z,2.01
2023-03-08T03:11:22.202Z,2.01
2023-03-08T03:13:59.091Z,2.02
2023-03-08T03:16:30.650Z,2.01
2023-03-08T03:18:58.641Z,2.01
2023-03-08T03:21:27.239Z,2.03
2023-03-08T03:23:55.906Z,2.03
2023-03-08T03:26:29.079Z,2.03
2023-03-08T03:28:57.928Z,2.04
2023-03-08T03:31:27.624Z,2.02
2023-03-08T03:33:55.861Z,2.02
2023-03-08T03:36:26.190Z,2.01
2023-03-08T03:38:54.719Z,2.01
2023-03-08T03:41:23.267Z,2.00
2023-03-08T03:43:56.187Z,2.00
2023-03-08T03:46:27.193Z,2.01
2023-03-08T03:48:56.190Z,2.01
2023-03-08T03:51:24.560Z,2.01
2023-03-08T03:54:00.213Z,2.02
2023-03-08T03:56:29.290Z,2.02
2023-03-08T03:59:00.017Z,2.04
2023-03-08T04:01:29.663Z,2.04
2023-03-08T04:04:05.648Z,2.03
2023-03-08T04:06:35.447Z,2.02
2023-03-08T04:09:13.224Z,2.02
2023-03-08T04:11:42.470Z,2.02
2023-03-08T04:14:14.824Z,2.02
2023-03-08T04:16:44.383Z,2.02
2023-03-08T04:19:22.548Z,2.03
2023-03-08T04:21:53.203Z,2.02
2023-03-08T04:24:23.897Z,2.02
2023-03-08T04:26:55.041Z,2.02
2023-03-08T04:29:24.318Z,2.02
2023-03-08T04:31:55.824Z,2.03
2023-03-08T04:34:24.157Z,2.03
2023-03-08T04:36:54.343Z,2.04
2023-03-08T04:39:22.561Z,2.04
2023-03-08T04:41:50.825Z,2.05
2023-03-08T04:44:31.202Z,2.04
2023-03-08T04:47:02.064Z,2.04
2023-03-08T04:49:41.375Z,2.03
2023-03-08T04:52:09.384Z,2.02
2023-03-08T04:54:39.404Z,2.01
2023-03-08T04:57:15.975Z,2.01
2023-03-08T04:59:44.733Z,2.00
2023-03-08T05:02:13.141Z,1.99
2023-03-08T05:04:41.568Z,1.99
2023-03-08T05:07:11.634Z,2.01
2023-03-08T05:09:39.725Z,2.02
2023-03-08T05:12:08.915Z,2.03
2023-03-08T05:14:47.722Z,2.04
2023-03-08T05:17:16.071Z,2.06
2023-03-08T05:19:49.230Z,2.08
2023-03-08T05:22:19.657Z,2.09
2023-03-08T05:24:51.123Z,2.09
2023-03-08T05:27:19.488Z,2.08
2023-03-08T05:29:48.076Z,2.09
2023-03-08T05:32:22.888Z,2.08
2023-03-08T05:34:54.846Z,2.10
2023-03-08T05:37:30.108Z,2.11
2023-03-08T05:40:01.878Z,2.14
2023-03-08T05:42:33.072Z,2.17
2023-03-08T05:45:03.013Z,2.21
2023-03-08T05:47:35.216Z,2.23
2023-03-08T05:50:03.598Z,2.25
2023-03-08T05:52:34.765Z,2.28
2023-03-08T05:55:05.953Z,2.32
2023-03-08T05:57:34.721Z,2.35
2023-03-08T06:00:04.810Z,2.41
2023-03-08T06:02:44.572Z,2.46
2023-03-08T06:05:13.590Z,2.51
2023-03-08T06:07:44.490Z,2.55
2023-03-08T06:10:14.193Z,2.59
2023-03-08T06:12:42.544Z,2.64
2023-03-08T06:15:13.446Z,2.70
2023-03-08T06:17:41.790Z,2.76
2023-03-08T06:20:11.093Z,2.83
2023-03-08T06:22:40.980Z,2.91
2023-03-08T06:25:11.496Z,2.96
2023-03-08T06:29:33.038Z,3.06
2023-03-08T06:32:03.748Z,3.13
2023-03-08T06:34:32.570Z,3.20
2023-03-08T06:37:02.313Z,3.27
2023-03-08T06:39:31.969Z,3.36
2023-03-08T06:42:03.430Z,3.46
2023-03-08T06:44:32.986Z,3.57
2023-03-08T06:47:00.906Z,3.67
2023-03-08T06:49:29.089Z,3.77
2023-03-08T06:51:57.382Z,3.86
2023-03-08T06:54:25.441Z,3.95
2023-03-08T06:56:53.637Z,4.02
2023-03-08T06:59:21.650Z,4.10
2023-03-08T07:01:49.531Z,4.17
2023-03-08T07:04:18.452Z,4.24
2023-03-08T07:06:51.864Z,4.31
2023-03-08T07:09:20.048Z,4.37
2023-03-08T07:11:48.023Z,4.42
2023-03-08T07:14:16.352Z,4.48
2023-03-08T07:16:45.410Z,4.53
2023-03-08T07:19:13.425Z,4.59
2023-03-08T07:21:44.476Z,4.64
2023-03-08T07:24:12.656Z,4.70
2023-03-08T07:26:40.628Z,4.75
2023-03-08T07:29:09.005Z,4.80
2023-03-08T07:31:38.043Z,4.83
2023-03-08T07:34:06.430Z,4.85
2023-03-08T07:36:36.391Z,4.87
2023-03-08T07:39:04.560Z,4.89
2023-03-08T07:41:34.808Z,4.92
2023-03-08T07:44:03.654Z,4.96
2023-03-08T07:46:36.740Z,5.00
2023-03-08T07:49:10.659Z,5.04
2023-03-08T07:51:38.753Z,5.05
2023-03-08T07:54:07.755Z,5.07
2023-03-08T07:56:35.807Z,5.08
2023-03-08T07:59:04.463Z,5.10
2023-03-08T08:01:33.171Z,5.12
2023-03-08T08:04:01.163Z,5.12
2023-03-08T08:06:30.498Z,5.15
2023-03-08T08:08:58.641Z,5.18
2023-03-08T08:11:26.689Z,5.23
2023-03-08T08:13:56.300Z,5.31
2023-03-08T08:16:24.268Z,5.41
2023-03-08T08:18:54.711Z,5.51
2023-03-08T08:21:24.528Z,5.62
2023-03-08T08:23:57.779Z,5.74
2023-03-08T08:26:26.158Z,5.83
2023-03-08T08:28:54.225Z,5.91
2023-03-08T08:31:24.080Z,5.99
2023-03-08T08:33:52.602Z,6.07
2023-03-08T08:36:21.282Z,6.15
2023-03-08T08:38:50.016Z,6.21
2023-03-08T08:41:19.052Z,6.27
2023-03-08T08:43:47.327Z,6.34
2023-03-08T08:46:15.946Z,6.42
2023-03-08T08:48:43.839Z,6.51
2023-03-08T08:51:12.577Z,6.59
2023-03-08T08:53:40.668Z,6.66
2023-03-08T08:56:25.603Z,6.71
2023-03-08T08:58:59.606Z,6.76
2023-03-08T09:01:30.137Z,6.81
2023-03-08T09:04:17.890Z,6.88
2023-03-08T09:06:47.430Z,6.93
2023-03-08T09:09:16.645Z,6.98
2023-03-08T09:11:55.104Z,7.03
2023-03-08T09:14:25.701Z,7.08
2023-03-08T09:16:54.149Z,7.14
2023-03-08T09:19:22.227Z,7.20
2023-03-08T09:21:50.204Z,7.23
2023-03-08T09:24:18.151Z,7.24
2023-03-08T09:26:49.183Z,7.21
2023-03-08T09:29:16.996Z,7.18
2023-03-08T09:31:45.445Z,7.14
2023-03-08T09:34:16.065Z,7.09
2023-03-08T09:36:44.134Z,7.05
2023-03-08T09:39:13.827Z,7.03
2023-03-08T09:41:48.670Z,6.99
2023-03-08T09:44:44.068Z,6.94
2023-03-08T09:47:15.251Z,6.89
2023-03-08T09:49:43.311Z,6.86
2023-03-08T09:52:40.663Z,6.82
2023-03-08T09:55:30.219Z,6.77
2023-03-08T09:58:40.239Z,6.75
2023-03-08T10:01:20.334Z,-101.05
2023-03-08T10:04:20.344Z,-128.00
2023-03-08T10:07:12.972Z,-128.00
2023-03-08T10:09:47.962Z,-128.00
2023-03-08T10:12:22.106Z,-128.00
2023-03-08T10:14:52.587Z,-128.00
2023-03-08T10:17:26.708Z,-128.00
2023-03-08T10:19:57.870Z,-128.00
2023-03-08T10:22:32.512Z,-128.00
2023-03-08T10:25:21.959Z,-128.00
2023-03-08T10:27:52.487Z,-128.00
2023-03-08T10:30:22.536Z,-128.00
2023-03-08T10:32:51.655Z,-128.00
2023-03-08T10:35:30.951Z,-128.00
2023-03-08T10:38:00.789Z,-128.00
2023-03-08T10:40:29.166Z,-128.00
2023-03-08T10:43:01.146Z,-128.00
2023-03-08T10:45:29.722Z,-128.00
2023-03-08T10:48:05.466Z,-128.00
2023-03-08T10:50:37.003Z,-128.00
2023-03-08T10:53:19.216Z,-128.00
2023-03-08T10:55:53.039Z,-128.00
2023-03-08T10:58:41.762Z,-128.00
2023-03-08T11:01:31.025Z,-128.00
2023-03-08T11:04:04.609Z,-128.00
2023-03-08T11:06:35.391Z,-128.00
2023-03-08T11:09:04.762Z,-128.00
2023-03-08T11:11:41.286Z,-128.00
2023-03-08T11:14:10.953Z,-128.00
2023-03-08T11:17:17.910Z,-128.00
2023-03-08T11:19:54.014Z,-128.00
2023-03-08T11:22:48.553Z,-128.00
2023-03-08T11:25:25.288Z,-128.00
2023-03-08T11:28:00.578Z,-128.00
2023-03-08T11:30:55.132Z,-128.00
2023-03-08T11:33:30.577Z,-128.00
2023-03-08T11:36:04.826Z,-128.00
2023-03-08T11:38:33.593Z,-128.00
2023-03-08T11:41:16.900Z,-128.00
2023-03-08T11:43:53.308Z,-128.00
2023-03-08T11:46:38.990Z,-128.00
2023-03-08T11:49:26.541Z,-128.00
2023-03-08T11:52:08.079Z,-128.00
2023-03-08T11:54:38.908Z,-128.00
2023-03-08T11:57:12.238Z,-128.00
2023-03-08T12:00:06.847Z,-128.00
2023-03-08T12:02:45.114Z,-128.00
2023-03-08T12:05:17.188Z,-128.00
2023-03-08T12:07:48.180Z,-128.00
2023-03-08T12:10:20.711Z,-128.00
2023-03-08T12:13:00.111Z,-128.00
2023-03-08T12:15:40.346Z,-128.00
2023-03-08T12:18:29.999Z,-128.00
2023-03-08T12:21:30.037Z,-128.00
2023-03-08T12:24:22.993Z,-128.00
2023-03-08T12:26:59.106Z,-128.00
2023-03-08T12:29:34.747Z,-128.00
2023-03-08T12:32:03.092Z,-128.00
2023-03-08T12:34:39.769Z,-128.00
2023-03-08T12:37:25.370Z,-128.00
2023-03-08T12:39:58.898Z,-128.00
2023-03-08T12:42:32.469Z,-128.00
2023-03-08T12:45:07.710Z,-128.00
2023-03-08T12:47:37.449Z,-128.00
2023-03-08T12:50:11.682Z,-128.00
2023-03-08T12:52:39.608Z,-128.00
2023-03-08T12:55:26.978Z,-128.00
2023-03-08T12:57:56.703Z,-128.00
2023-03-08T13:00:57.917Z,-128.00
2023-03-08T13:03:41.567Z,-128.00
2023-03-08T13:06:51.630Z,-128.00
2023-03-08T13:09:36.243Z,-128.00
2023-03-08T13:12:05.469Z,-128.00
2023-03-08T13:15:02.295Z,-128.00
2023-03-08T13:17:30.472Z,-128.00
2023-03-08T13:20:24.413Z,-128.00
2023-03-08T13:23:03.927Z,-128.00
2023-03-08T13:25:35.387Z,-128.00
2023-03-08T13:28:11.285Z,-128.00
2023-03-08T13:30:47.169Z,-128.00
2023-03-08T13:33:21.125Z,-128.00
2023-03-08T13:36:00.567Z,-128.00
2023-03-08T13:38:34.633Z,-128.00
2023-03-08T13:41:02.864Z,-128.00
2023-03-08T13:43:33.291Z,-128.00
2023-03-08T13:46:03.344Z,-128.00
2023-03-08T13:48:34.878Z,-128.00
2023-03-08T13:51:03.056Z,-128.00
2023-03-08T13:53:35.814Z,-128.00
2023-03-08T13:56:05.232Z,-128.00
2023-03-08T13:58:34.414Z,-128.00
2023-03-08T14:01:14.310Z,-128.00
2023-03-08T14:03:43.709Z,-128.00
2023-03-08T14:06:22.255Z,-128.00
2023-03-08T14:08:50.996Z,-128.00
2023-03-08T14:11:23.376Z,-128.00
2023-03-08T14:13:56.938Z,-128.00
2023-03-08T14:16:29.112Z,-128.00
2023-03-08T14:18:58.370Z,-128.00
2023-03-08T14:21:30.276Z,-128.00
2023-03-08T14:24:02.277Z,-128.00
2023-03-08T14:26:35.011Z,-128.00
2023-03-08T14:29:03.865Z,-128.00
2023-03-08T14:31:32.116Z,-128.00
2023-03-08T14:34:03.705Z,-128.00
2023-03-08T14:36:32.115Z,-128.00
2023-03-08T14:39:01.285Z,-128.00
2023-03-08T14:41:32.200Z,-128.00
2023-03-08T14:44:01.222Z,-128.00
2023-03-08T14:46:30.301Z,-128.00
2023-03-08T14:49:03.014Z,-128.00
2023-03-08T14:51:41.884Z,-128.00
2023-03-08T14:54:31.491Z,-128.00
2023-03-08T14:57:15.906Z,-128.00
2023-03-08T14:59:44.156Z,-128.00
2023-03-08T15:02:13.102Z,-128.00
2023-03-08T15:04:41.875Z,-128.00
2023-03-08T15:07:20.657Z,-128.00
2023-03-08T15:09:49.576Z,-128.00
2023-03-08T15:12:18.739Z,-128.00
2023-03-08T15:14:46.715Z,-128.00
2023-03-08T15:17:18.030Z,-128.00
2023-03-08T15:19:46.115Z,-128.00
2023-03-08T15:22:13.972Z,-128.00
2023-03-08T15:24:43.177Z,-128.00
2023-03-08T15:27:15.612Z,-128.00
2023-03-08T15:29:43.847Z,-128.00
2023-03-08T15:32:11.990Z,-128.00
2023-03-08T15:34:40.949Z,-128.00
2023-03-08T15:37:13.730Z,-128.00
2023-03-08T15:39:41.694Z,-128.00
2023-03-08T15:42:09.645Z,-128.00
2023-03-08T15:44:37.584Z,-128.00
2023-03-08T15:47:06.472Z,-128.00
2023-03-08T15:49:34.462Z,-128.00
2023-03-08T15:52:02.575Z,-128.00
2023-03-08T15:54:31.866Z,-128.00
2023-03-08T15:57:00.279Z,-128.00
2023-03-08T15:59:28.183Z,-128.00
2023-03-08T16:01:56.089Z,-128.00
2023-03-08T16:04:24.098Z,-128.00
2023-03-08T16:06:53.329Z,-128.00
2023-03-08T16:09:23.067Z,-128.00
2023-03-08T16:11:52.175Z,-128.00
2023-03-08T16:14:20.584Z,-128.00
2023-03-08T16:16:48.672Z,-128.00
2023-03-08T16:19:17.898Z,-128.00
2023-03-08T16:21:45.989Z,-128.00
2023-03-08T16:24:14.033Z,-128.00
2023-03-08T16:26:41.977Z,-128.00
2023-03-08T16:29:10.225Z,-128.00
2023-03-08T16:31:38.934Z,-128.00
2023-03-08T16:34:06.996Z,-128.00
2023-03-08T16:36:35.052Z,-128.00
2023-03-08T16:39:05.633Z,-128.00
2023-03-08T16:41:34.943Z,-128.00
2023-03-08T16:44:04.055Z,-128.00
2023-03-08T16:46:33.496Z,-128.00
2023-03-08T16:49:01.364Z,-128.00
2023-03-08T16:51:31.209Z,-128.00
2023-03-08T16:53:59.088Z,-128.00
2023-03-08T16:56:28.320Z,-128.00
2023-03-08T16:58:58.965Z,-128.00
2023-03-08T17:01:26.985Z,-128.00
2023-03-08T17:03:56.067Z,-128.00
2023-03-08T17:06:25.849Z,-128.00
2023-03-08T17:08:57.575Z,-128.00
2023-03-08T17:11:27.763Z,-128.00
2023-03-08T17:14:01.234Z,-128.00
2023-03-08T17:16:35.638Z,-128.00
2023-03-08T17:19:05.042Z,-128.00
2023-03-08T17:21:38.207Z,-128.00
2023-03-08T17:24:13.080Z,-128.00
2023-03-08T17:26:42.925Z,-128.00
2023-03-08T17:29:10.967Z,-128.00
2023-03-08T17:31:41.064Z,-128.00
2023-03-08T17:34:09.150Z,-128.00
2023-03-08T17:36:37.136Z,-128.00
2023-03-08T17:39:07.149Z,-128.00
2023-03-08T17:41:38.663Z,-128.00
2023-03-08T17:44:06.981Z,-128.00
2023-03-08T17:46:35.036Z,-128.00
2023-03-08T17:49:03.073Z,-128.00
2023-03-08T17:51:31.690Z,-128.00
2023-03-08T17:54:01.057Z,-128.00
2023-03-08T17:56:31.144Z,-128.00
2023-03-08T17:59:02.941Z,-128.00
2023-03-08T18:01:31.227Z,-128.00
2023-03-08T18:03:59.495Z,-128.00
2023-03-08T18:06:27.401Z,-128.00
2023-03-08T18:09:00.042Z,-128.00
2023-03-08T18:11:28.132Z,-128.00
2023-03-08T18:13:56.306Z,-128.00
2023-03-08T18:16:24.339Z,-128.00
2023-03-08T18:19:02.498Z,-128.00
2023-03-08T18:21:31.584Z,-128.00
2023-03-08T18:23:59.639Z,-128.00
2023-03-08T18:26:27.746Z,-128.00
2023-03-08T18:28:56.673Z,-128.00
2023-03-08T18:31:26.373Z,-128.00
2023-03-08T18:33:55.300Z,-128.00
2023-03-08T18:36:26.974Z,-128.00
2023-03-08T18:38:54.906Z,-128.00
2023-03-08T18:41:25.835Z,-128.00
